createdAt,value
2023-04-02T00:01:38.930Z,2.60
2023-04-02T00:04:14.550Z,2.20
2023-04-02T00:06:45.729Z,1.75
2023-04-02T00:09:34.330Z,2.30
2023-04-02T00:12:15.638Z,1.77
2023-04-02T00:17:33.495Z,2.07
2023-04-02T00:20:06.349Z,2.30
2023-04-02T00:22:34.269Z,2.42
2023-04-02T00:25:08.957Z,2.15
2023-04-02T00:27:37.102Z,3.05
2023-04-02T00:30:05.020Z,2.93
2023-04-02T00:32:33.881Z,3.05
2023-04-02T00:35:01.661Z,3.15
2023-04-02T00:37:38.848Z,2.63
2023-04-02T00:40:10.443Z,3.10
2023-04-02T00:42:40.140Z,2.70
2023-04-02T00:45:09.428Z,2.40
2023-04-02T00:47:38.566Z,2.55
2023-04-02T00:50:07.600Z,2.80
2023-04-02T00:52:36.524Z,2.90
2023-04-02T00:55:07.571Z,2.47
2023-04-02T00:57:36.694Z,2.90
2023-04-02T01:00:18.229Z,2.88
2023-04-02T01:03:06.069Z,2.78
2023-04-02T01:05:36.685Z,2.70
2023-04-02T01:08:07.291Z,2.50
2023-04-02T01:10:42.350Z,2.55
2023-04-02T01:13:14.590Z,2.67
2023-04-02T01:15:43.286Z,2.65
2023-04-02T01:18:26.417Z,2.83
2023-04-02T01:21:12.072Z,2.00
2023-04-02T01:23:45.994Z,1.52
2023-04-02T01:26:17.861Z,1.73
2023-04-02T01:28:51.719Z,1.15
2023-04-02T01:31:19.550Z,1.05
2023-04-02T01:33:47.251Z,0.80
2023-04-02T01:36:18.813Z,0.70
2023-04-02T01:38:48.926Z,0.90
2023-04-02T01:41:21.982Z,0.80
2023-04-02T01:43:54.084Z,0.95
2023-04-02T01:46:25.820Z,1.10
2023-04-02T01:48:53.760Z,1.00
2023-04-02T01:51:28.252Z,0.95
2023-04-02T01:53:57.275Z,0.80
2023-04-02T01:56:25.045Z,0.70
2023-04-02T01:58:54.750Z,0.50
2023-04-02T02:01:24.277Z,0.52
2023-04-02T02:03:52.460Z,0.77
2023-04-02T02:06:20.412Z,0.70
2023-04-02T02:08:49.884Z,0.73
2023-04-02T02:11:18.801Z,0.70
2023-04-02T02:13:47.757Z,0.70
2023-04-02T02:16:18.880Z,0.82
2023-04-02T02:18:47.310Z,1.00
2023-04-02T02:21:17.800Z,0.60
2023-04-02T02:23:45.418Z,0.73
2023-04-02T02:26:14.140Z,0.60
2023-04-02T02:28:43.537Z,0.70
2023-04-02T02:31:17.297Z,1.02
2023-04-02T02:33:48.175Z,1.00
2023-04-02T02:36:18.833Z,0.90
2023-04-02T02:38:54.258Z,1.08
2023-04-02T02:41:26.251Z,0.90
2023-04-02T02:43:58.490Z,1.13
2023-04-02T02:46:26.467Z,1.00
2023-04-02T02:48:56.289Z,1.10
2023-04-02T02:51:28.395Z,0.68
2023-04-02T02:53:57.851Z,1.00
2023-04-02T02:56:26.720Z,0.75
2023-04-02T02:58:54.958Z,1.10
2023-04-02T03:01:22.666Z,0.73
2023-04-02T03:03:53.753Z,0.90
2023-04-02T03:06:23.389Z,0.88
2023-04-02T03:08:54.565Z,1.50
2023-04-02T03:11:26.509Z,1.05
2023-04-02T03:13:56.975Z,0.97
2023-04-02T03:16:27.087Z,0.93
2023-04-02T03:18:58.463Z,0.85
2023-04-02T03:21:32.187Z,1.05
2023-04-02T03:24:01.974Z,0.80
2023-04-02T03:26:33.669Z,1.07
2023-04-02T03:29:03.961Z,0.90
2023-04-02T03:31:33.411Z,1.20
2023-04-02T03:34:09.480Z,0.80
2023-04-02T03:36:43.556Z,1.17
2023-04-02T03:39:13.441Z,0.77
2023-04-02T03:41:42.562Z,0.70
2023-04-02T03:44:18.113Z,0.90
2023-04-02T03:46:46.781Z,0.73
2023-04-02T03:49:19.024Z,1.00
2023-04-02T03:51:52.105Z,0.90
2023-04-02T03:54:20.704Z,0.98
2023-04-02T03:56:48.498Z,0.95
2023-04-02T03:59:20.860Z,1.25
2023-04-02T04:01:50.294Z,1.00
2023-04-02T04:04:20.587Z,0.90
2023-04-02T04:06:52.481Z,1.10
2023-04-02T04:09:21.840Z,0.90
2023-04-02T04:11:51.607Z,0.93
2023-04-02T04:14:21.082Z,0.82
2023-04-02T04:16:54.137Z,0.80
2023-04-02T04:19:23.871Z,1.10
2023-04-02T04:21:57.086Z,1.38
2023-04-02T04:24:25.594Z,1.05
2023-04-02T04:26:55.059Z,0.63
2023-04-02T04:29:31.626Z,1.07
2023-04-02T04:32:11.024Z,0.90
2023-04-02T04:34:42.432Z,0.95
2023-04-02T04:37:25.275Z,0.88
2023-04-02T04:39:56.375Z,0.77
2023-04-02T04:42:25.680Z,0.50
2023-04-02T04:44:56.344Z,0.93
2023-04-02T04:49:56.496Z,1.30
2023-04-02T04:52:27.257Z,1.15
2023-04-02T04:54:55.018Z,0.97
2023-04-02T04:57:30.946Z,0.95
2023-04-02T05:00:02.177Z,1.02
2023-04-02T05:02:32.529Z,0.88
2023-04-02T05:05:01.460Z,1.55
2023-04-02T05:07:31.544Z,1.50
2023-04-02T05:10:01.713Z,1.60
2023-04-02T05:12:34.727Z,1.60
2023-04-02T05:15:05.286Z,1.52
2023-04-02T05:17:36.005Z,1.50
2023-04-02T05:20:08.239Z,1.83
2023-04-02T05:22:41.217Z,1.50
2023-04-02T05:25:15.098Z,2.00
2023-04-02T05:27:44.902Z,2.22
2023-04-02T05:30:17.133Z,1.85
2023-04-02T05:32:48.683Z,1.33
2023-04-02T05:35:18.073Z,1.95
2023-04-02T05:37:47.642Z,1.52
2023-04-02T05:40:16.959Z,2.13
2023-04-02T05:42:46.352Z,1.70
2023-04-02T05:45:20.475Z,1.43
2023-04-02T05:47:49.472Z,1.30
2023-04-02T05:50:22.173Z,1.58
2023-04-02T05:52:52.898Z,1.23
2023-04-02T05:55:28.219Z,1.10
2023-04-02T05:58:21.380Z,1.20
2023-04-02T06:00:52.044Z,1.50
2023-04-02T06:03:24.098Z,1.58
2023-04-02T06:05:53.062Z,1.30
2023-04-02T06:08:23.947Z,1.30
2023-04-02T06:10:54.668Z,1.47
2023-04-02T06:13:22.388Z,1.30
2023-04-02T06:15:49.880Z,1.75
2023-04-02T06:18:20.586Z,1.73
2023-04-02T06:20:48.212Z,1.50
2023-04-02T06:23:17.590Z,1.63
2023-04-02T06:25:49.461Z,1.92
2023-04-02T06:28:19.400Z,1.75
2023-04-02T06:30:47.004Z,2.40
2023-04-02T06:33:15.744Z,2.72
2023-04-02T06:35:46.522Z,2.50
2023-04-02T06:38:16.976Z,2.50
2023-04-02T06:40:48.373Z,2.40
2023-04-02T06:43:20.351Z,1.70
2023-04-02T06:45:50.882Z,2.35
2023-04-02T06:48:20.825Z,2.63
2023-04-02T06:50:49.624Z,2.80
2023-04-02T06:53:20.769Z,2.40
2023-04-02T06:55:49.793Z,2.35
2023-04-02T06:58:19.563Z,3.03
2023-04-02T07:00:47.764Z,2.13
2023-04-02T07:03:16.472Z,2.38
2023-04-02T07:05:44.130Z,2.60
2023-04-02T07:08:11.719Z,2.95
2023-04-02T07:10:39.508Z,2.47
2023-04-02T07:13:08.329Z,2.60
2023-04-02T07:15:38.066Z,2.70
2023-04-02T07:18:06.278Z,2.95
2023-04-02T07:20:37.630Z,2.58
2023-04-02T07:23:05.378Z,2.75
2023-04-02T07:25:33.115Z,2.80
2023-04-02T07:28:01.588Z,2.50
2023-04-02T07:30:29.117Z,2.40
2023-04-02T07:32:58.051Z,2.40
2023-04-02T07:35:26.953Z,3.30
2023-04-02T07:37:54.526Z,2.47
2023-04-02T07:40:24.286Z,2.40
2023-04-02T07:42:52.060Z,2.63
2023-04-02T07:45:19.707Z,2.35
2023-04-02T07:47:47.458Z,1.77
2023-04-02T07:50:16.722Z,1.67
2023-04-02T07:52:44.647Z,2.22
2023-04-02T07:55:13.705Z,2.10
2023-04-02T07:57:43.650Z,2.42
2023-04-02T08:00:13.362Z,1.90
2023-04-02T08:02:41.257Z,1.73
2023-04-02T08:05:09.579Z,1.92
2023-04-02T08:07:38.994Z,1.98
2023-04-02T08:10:07.200Z,2.10
2023-04-02T08:12:34.887Z,2.10
2023-04-02T08:15:02.878Z,2.10
2023-04-02T08:17:31.497Z,2.40
2023-04-02T08:20:01.289Z,2.30
2023-04-02T08:22:28.911Z,2.15
2023-04-02T08:24:58.009Z,2.25
2023-04-02T08:27:25.827Z,1.70
2023-04-02T08:29:53.589Z,2.15
2023-04-02T08:32:22.115Z,2.58
2023-04-02T08:34:50.033Z,2.33
2023-04-02T08:37:17.849Z,3.05
2023-04-02T08:39:46.100Z,2.90
2023-04-02T08:42:21.934Z,2.70
2023-04-02T08:44:53.889Z,3.45
2023-04-02T08:47:25.881Z,3.55
2023-04-02T08:49:55.411Z,3.58
2023-04-02T08:52:24.761Z,3.40
2023-04-02T08:54:53.567Z,3.63
2023-04-02T08:57:28.374Z,3.13
2023-04-02T08:59:59.228Z,2.75
2023-04-02T09:02:30.772Z,3.08
2023-04-02T09:04:59.626Z,2.47
2023-04-02T09:07:28.615Z,2.67
2023-04-02T09:09:57.985Z,2.45
2023-04-02T09:12:28.145Z,2.22
2023-04-02T09:15:00.569Z,2.03
2023-04-02T09:17:29.989Z,1.70
2023-04-02T09:20:00.992Z,1.65
2023-04-02T09:22:29.983Z,1.70
2023-04-02T09:24:58.810Z,1.75
2023-04-02T09:27:31.258Z,1.65
2023-04-02T09:30:02.138Z,1.83
2023-04-02T09:32:46.890Z,1.80
2023-04-02T09:35:25.676Z,1.67
2023-04-02T09:38:29.165Z,1.90
2023-04-02T09:40:59.599Z,1.85
2023-04-02T09:43:29.764Z,1.77
2023-04-02T09:45:59.504Z,1.63
2023-04-02T09:48:30.400Z,1.13
2023-04-02T09:51:06.008Z,1.73
2023-04-02T09:53:35.907Z,1.63
2023-04-02T09:56:11.247Z,1.63
2023-04-02T09:58:40.337Z,1.58
2023-04-02T10:01:14.641Z,1.20
2023-04-02T10:03:44.048Z,0.93
2023-04-02T10:06:12.802Z,1.30
2023-04-02T10:08:41.574Z,1.50
2023-04-02T10:11:10.101Z,1.05
2023-04-02T10:13:41.967Z,1.20
2023-04-02T10:16:12.078Z,1.65
2023-04-02T10:18:42.855Z,1.40
2023-04-02T10:21:12.956Z,0.90
2023-04-02T10:23:40.738Z,1.08
2023-04-02T10:26:21.447Z,1.30
2023-04-02T10:28:56.756Z,0.90
2023-04-02T10:31:26.481Z,0.90
2023-04-02T10:33:59.243Z,0.67
2023-04-02T10:36:32.017Z,0.70
2023-04-02T10:39:02.778Z,0.65
2023-04-02T10:41:33.962Z,0.55
2023-04-02T10:44:22.341Z,0.80
2023-04-02T10:46:53.845Z,0.67
2023-04-02T10:49:28.918Z,0.70
2023-04-02T10:51:59.767Z,0.90
2023-04-02T10:54:39.257Z,0.63
2023-04-02T10:57:10.452Z,0.80
2023-04-02T10:59:41.014Z,0.50
2023-04-02T11:05:16.432Z,0.70
2023-04-02T11:07:50.305Z,0.60
2023-04-02T11:10:19.931Z,0.60
2023-04-02T11:12:51.016Z,1.23
2023-04-02T11:15:19.667Z,0.70
2023-04-02T11:17:49.012Z,1.00
2023-04-02T11:20:35.356Z,1.38
2023-04-02T11:23:07.058Z,0.75
2023-04-02T11:25:35.473Z,0.77
2023-04-02T11:28:14.393Z,0.55
2023-04-02T11:30:43.429Z,1.10
2023-04-02T11:33:36.347Z,0.88
2023-04-02T11:36:06.800Z,0.70
2023-04-02T11:38:52.452Z,0.87
2023-04-02T11:41:35.122Z,0.98
2023-04-02T11:44:02.869Z,1.10
2023-04-02T11:46:48.086Z,0.95
2023-04-02T11:49:33.519Z,1.27
2023-04-02T11:52:11.913Z,1.00
2023-04-02T11:54:40.882Z,1.40
2023-04-02T11:57:18.075Z,1.00
2023-04-02T11:59:51.563Z,1.05
2023-04-02T12:02:21.803Z,0.93
2023-04-02T12:05:07.515Z,1.07
2023-04-02T12:08:05.967Z,1.20
2023-04-02T12:10:49.693Z,1.08
2023-04-02T12:13:19.185Z,0.52
2023-04-02T12:15:47.515Z,0.98
2023-04-02T12:18:17.435Z,0.73
2023-04-02T12:20:49.430Z,1.08
2023-04-02T12:23:19.226Z,1.33
2023-04-02T12:25:54.510Z,1.00
2023-04-02T12:28:22.461Z,0.82
2023-04-02T12:30:51.081Z,0.73
2023-04-02T12:33:27.832Z,0.60
2023-04-02T12:35:57.282Z,0.95
2023-04-02T12:38:25.681Z,0.65
2023-04-02T12:40:55.314Z,0.75
2023-04-02T12:43:24.086Z,1.20
2023-04-02T12:45:52.999Z,0.93
2023-04-02T12:48:20.992Z,0.90
2023-04-02T12:50:48.983Z,0.70
2023-04-02T12:53:21.066Z,1.33
2023-04-02T12:55:49.051Z,0.90
2023-04-02T12:58:25.700Z,0.82
2023-04-02T13:00:53.565Z,0.80
2023-04-02T13:03:23.463Z,0.90
2023-04-02T13:05:52.934Z,1.02
2023-04-02T13:08:21.620Z,0.73
2023-04-02T13:10:53.438Z,0.80
2023-04-02T13:13:27.721Z,1.08
2023-04-02T13:16:03.663Z,0.57
2023-04-02T13:18:32.708Z,0.90
2023-04-02T13:21:00.526Z,0.93
2023-04-02T13:23:36.396Z,1.25
2023-04-02T13:26:12.177Z,0.70
2023-04-02T13:28:42.859Z,1.00
2023-04-02T13:31:16.069Z,0.93
2023-04-02T13:33:43.849Z,0.60
2023-04-02T13:36:13.982Z,1.17
2023-04-02T13:38:41.638Z,0.73
2023-04-02T13:41:11.975Z,0.65
2023-04-02T13:43:41.435Z,0.73
2023-04-02T13:46:09.133Z,0.50
2023-04-02T13:48:37.191Z,0.93
2023-04-02T13:51:04.792Z,1.10
2023-04-02T13:53:33.244Z,0.70
2023-04-02T13:56:01.022Z,1.30
2023-04-02T13:58:28.608Z,1.07
2023-04-02T14:00:58.063Z,0.70
2023-04-02T14:03:25.965Z,0.93
2023-04-02T14:05:57.077Z,0.73
2023-04-02T14:08:30.970Z,0.80
2023-04-02T14:11:03.151Z,0.67
2023-04-02T14:13:48.566Z,0.52
2023-04-02T14:16:28.086Z,0.80
2023-04-02T14:19:02.061Z,0.45
2023-04-02T14:21:34.290Z,0.93
2023-04-02T14:24:08.566Z,1.13
2023-04-02T14:26:42.250Z,0.70
2023-04-02T14:29:13.676Z,0.57
2023-04-02T14:31:45.591Z,0.68
2023-04-02T14:34:17.821Z,0.70
2023-04-02T14:36:53.173Z,1.03
2023-04-02T14:39:26.339Z,0.90
2023-04-02T14:41:56.049Z,0.90
2023-04-02T14:44:24.873Z,0.60
2023-04-02T14:46:58.684Z,0.98
2023-04-02T14:49:27.443Z,0.50
2023-04-02T14:51:59.657Z,1.00
2023-04-02T14:54:31.278Z,0.85
2023-04-02T14:57:00.340Z,0.70
2023-04-02T14:59:30.370Z,1.02
2023-04-02T15:02:01.209Z,0.50
2023-04-02T15:04:32.214Z,0.77
2023-04-02T15:07:03.049Z,1.00
2023-04-02T15:09:33.200Z,0.93
2023-04-02T15:12:02.695Z,0.77
2023-04-02T15:14:32.613Z,0.60
2023-04-02T15:17:02.991Z,0.90
2023-04-02T15:19:30.836Z,0.63
2023-04-02T15:22:08.830Z,1.08
2023-04-02T15:24:43.158Z,0.70
2023-04-02T15:27:24.893Z,0.77
2023-04-02T15:29:55.686Z,0.55
2023-04-02T15:32:31.368Z,0.85
2023-04-02T15:35:03.052Z,0.82
2023-04-02T15:37:34.585Z,0.85
2023-04-02T15:40:17.088Z,1.00
2023-04-02T15:42:48.440Z,0.93
2023-04-02T15:45:23.998Z,0.50
2023-04-02T15:48:07.455Z,0.70
2023-04-02T15:50:44.106Z,0.98
2023-04-02T15:53:19.015Z,0.73
2023-04-02T15:55:49.866Z,1.05
2023-04-02T15:58:25.072Z,0.93
2023-04-02T16:00:55.063Z,0.98
2023-04-02T16:03:34.692Z,1.02
2023-04-02T16:06:16.876Z,0.90
2023-04-02T16:08:50.425Z,0.80
2023-04-02T16:11:18.069Z,0.77
2023-04-02T16:13:47.092Z,1.00
2023-04-02T16:16:17.454Z,0.98
2023-04-02T16:18:50.194Z,0.83
2023-04-02T16:21:20.627Z,0.73
2023-04-02T16:23:48.763Z,0.75
2023-04-02T16:26:25.835Z,0.77
2023-04-02T16:28:59.783Z,0.93
2023-04-02T16:31:32.349Z,0.70
2023-04-02T16:34:06.345Z,0.52
2023-04-02T16:36:40.066Z,0.70
2023-04-02T16:39:13.031Z,0.70
2023-04-02T16:41:46.663Z,0.93
2023-04-02T16:44:20.659Z,0.77
2023-04-02T16:46:53.007Z,0.63
2023-04-02T16:49:27.101Z,0.90
2023-04-02T16:52:02.122Z,0.60
2023-04-02T16:54:32.411Z,0.73
2023-04-02T16:57:14.013Z,0.70
2023-04-02T16:59:45.055Z,0.80
2023-04-02T17:02:21.793Z,0.50
2023-04-02T17:05:02.216Z,0.55
2023-04-02T17:07:34.104Z,0.57
2023-04-02T17:10:08.043Z,0.60
2023-04-02T17:12:40.965Z,0.70
2023-04-02T17:15:26.674Z,0.55
2023-04-02T17:17:56.383Z,0.80
2023-04-02T17:20:26.205Z,0.63
2023-04-02T17:22:54.312Z,0.50
2023-04-02T17:25:24.531Z,0.80
2023-04-02T17:27:54.055Z,0.82
2023-04-02T17:30:24.996Z,0.50
2023-04-02T17:32:52.759Z,0.98
2023-04-02T17:35:25.937Z,0.50
2023-04-02T17:37:59.722Z,0.80
2023-04-02T17:40:30.913Z,0.80
2023-04-02T17:43:02.540Z,0.70
2023-04-02T17:45:33.175Z,1.13
2023-04-02T17:48:03.745Z,0.60
2023-04-02T17:50:39.206Z,0.60
2023-04-02T17:53:12.939Z,0.82
2023-04-02T17:55:44.171Z,0.77
2023-04-02T17:58:20.494Z,0.80
2023-04-02T18:00:54.276Z,0.87
2023-04-02T18:03:37.320Z,2.80
2023-04-02T18:06:07.011Z,2.03
2023-04-02T18:08:42.864Z,0.65
2023-04-02T18:11:11.640Z,0.90
2023-04-02T18:13:42.361Z,1.00
2023-04-02T18:16:30.679Z,1.23
2023-04-02T18:19:06.007Z,1.90
2023-04-02T18:21:37.287Z,1.55
2023-04-02T18:24:16.593Z,0.93
2023-04-02T18:26:49.783Z,1.20
2023-04-02T18:29:24.240Z,1.10
2023-04-02T18:31:59.272Z,1.25
2023-04-02T18:34:34.022Z,0.88
2023-04-02T18:37:06.170Z,1.48
2023-04-02T18:39:39.196Z,1.27
2023-04-02T18:42:10.973Z,0.90
2023-04-02T18:44:50.517Z,0.82
2023-04-02T18:47:21.358Z,1.02
2023-04-02T18:49:51.818Z,0.57
2023-04-02T18:52:21.294Z,1.10
2023-04-02T18:54:52.532Z,0.85
2023-04-02T18:57:22.487Z,1.27
2023-04-02T18:59:52.402Z,0.90
2023-04-02T19:02:27.185Z,1.20
2023-04-02T19:04:59.444Z,1.10
2023-04-02T19:07:29.448Z,1.10
2023-04-02T19:10:02.029Z,1.15
2023-04-02T19:12:33.921Z,0.65
2023-04-02T19:15:01.632Z,0.68
2023-04-02T19:17:31.163Z,0.60
2023-04-02T19:20:04.352Z,0.80
2023-04-02T19:22:37.652Z,1.20
2023-04-02T19:25:24.226Z,1.02
2023-04-02T19:28:05.317Z,1.00
2023-04-02T19:30:42.317Z,0.80
2023-04-02T19:33:15.420Z,0.88
2023-04-02T19:35:44.643Z,1.00
2023-04-02T19:38:19.314Z,1.10
2023-04-02T19:40:51.492Z,0.95
2023-04-02T19:43:20.946Z,1.17
2023-04-02T19:45:49.319Z,1.20
2023-04-02T19:48:18.242Z,1.00
2023-04-02T19:50:46.528Z,1.25
2023-04-02T19:53:14.217Z,0.95
2023-04-02T19:55:42.357Z,1.07
2023-04-02T19:58:19.185Z,0.90
2023-04-02T20:00:49.154Z,1.25
2023-04-02T20:03:17.601Z,0.93
2023-04-02T20:05:45.453Z,1.10
2023-04-02T20:08:13.166Z,1.40
2023-04-02T20:10:40.878Z,1.27
2023-04-02T20:13:10.568Z,2.03
2023-04-02T20:15:39.836Z,1.10
2023-04-02T20:18:09.448Z,1.00
2023-04-02T20:20:37.834Z,1.20
2023-04-02T20:23:06.325Z,1.55
2023-04-02T20:25:33.987Z,1.42
2023-04-02T20:28:03.894Z,1.15
2023-04-02T20:30:31.664Z,1.30
2023-04-02T20:32:59.635Z,1.23
2023-04-02T20:35:29.694Z,1.05
2023-04-02T20:37:57.547Z,1.15
2023-04-02T20:40:25.469Z,1.30
2023-04-02T20:42:53.424Z,1.23
2023-04-02T20:45:21.072Z,0.97
2023-04-02T20:47:48.761Z,1.38
2023-04-02T20:50:16.546Z,1.65
2023-04-02T20:52:45.911Z,1.73
2023-04-02T20:55:15.047Z,1.80
2023-04-02T20:57:42.615Z,1.53
2023-04-02T21:00:12.224Z,1.70
2023-04-02T21:02:40.058Z,1.52
2023-04-02T21:05:07.928Z,1.30
2023-04-02T21:07:35.565Z,1.45
2023-04-02T21:10:04.935Z,1.80
2023-04-02T21:12:32.563Z,1.50
2023-04-02T21:15:02.809Z,2.05
2023-04-02T21:17:31.301Z,1.65
2023-04-02T21:19:58.966Z,1.27
2023-04-02T21:22:26.917Z,1.13
2023-04-02T21:24:54.605Z,1.48
2023-04-02T21:27:25.932Z,1.17
2023-04-02T21:29:53.856Z,1.00
2023-04-02T21:32:22.326Z,1.38
2023-04-02T21:34:50.262Z,1.13
2023-04-02T21:37:17.992Z,1.40
2023-04-02T21:39:45.728Z,1.25
2023-04-02T21:42:14.910Z,0.82
2023-04-02T21:44:44.002Z,1.27
2023-04-02T21:47:11.759Z,1.33
2023-04-02T21:49:39.393Z,1.33
2023-04-02T21:52:07.047Z,1.23
2023-04-02T21:54:34.776Z,1.20
2023-04-02T21:57:03.163Z,1.17
2023-04-02T21:59:31.495Z,1.10
2023-04-02T22:02:00.635Z,0.88
2023-04-02T22:04:30.679Z,1.92
2023-04-02T22:06:58.417Z,1.15
2023-04-02T22:09:27.196Z,1.20
2023-04-02T22:11:58.761Z,1.07
2023-04-02T22:14:26.557Z,1.33
2023-04-02T22:16:54.374Z,1.65
2023-04-02T22:19:23.399Z,0.75
2023-04-02T22:21:51.625Z,1.20
2023-04-02T22:24:22.020Z,1.37
2023-04-02T22:26:49.590Z,1.42
2023-04-02T22:29:17.582Z,1.58
2023-04-02T22:31:45.809Z,1.20
2023-04-02T22:34:13.712Z,1.00
2023-04-02T22:36:43.104Z,1.07
2023-04-02T22:39:12.385Z,1.02
2023-04-02T22:41:40.450Z,1.20
2023-04-02T22:44:08.198Z,0.80
2023-04-02T22:46:36.052Z,0.88
2023-04-02T22:49:04.351Z,1.00
2023-04-02T22:51:32.112Z,1.30
2023-04-02T22:54:01.120Z,1.10
2023-04-02T22:56:31.773Z,1.42
2023-04-02T22:58:59.701Z,1.15
2023-04-02T23:01:28.485Z,1.00
2023-04-02T23:03:56.535Z,1.40
2023-04-02T23:06:24.866Z,0.80
2023-04-02T23:08:52.902Z,1.17
2023-04-02T23:11:22.672Z,1.00
2023-04-02T23:13:52.247Z,0.70
2023-04-02T23:16:20.859Z,1.05
2023-04-02T23:18:50.030Z,1.10
2023-04-02T23:21:18.512Z,0.85
2023-04-02T23:23:46.365Z,1.13
2023-04-02T23:26:15.619Z,1.03
2023-04-02T23:28:46.305Z,0.85
2023-04-02T23:31:16.100Z,1.52
2023-04-02T23:33:44.013Z,1.15
2023-04-02T23:36:12.399Z,1.42
2023-04-02T23:38:39.988Z,1.10
2023-04-02T23:41:07.500Z,1.27
2023-04-02T23:43:35.454Z,1.33
2023-04-02T23:46:04.306Z,1.20
2023-04-02T23:48:31.832Z,0.98
2023-04-02T23:50:59.658Z,1.17
2023-04-02T23:53:27.215Z,0.80
2023-04-02T23:55:54.832Z,1.13
2023-04-02T23:58:22.706Z,1.42
